createdAt,value
2019-03-09T00:00:17.180Z,100.00
2019-03-09T00:02:45.838Z,100.00
2019-03-09T00:05:14.397Z,100.00
2019-03-09T00:07:43.095Z,100.00
2019-03-09T00:10:11.708Z,100.00
2019-03-09T00:12:40.400Z,100.00
2019-03-09T00:15:10.919Z,100.00
2019-03-09T00:17:40.094Z,100.00
2019-03-09T00:20:08.881Z,100.00
2019-03-09T00:22:37.636Z,100.00
2019-03-09T00:25:26.749Z,100.00
2019-03-09T00:27:59.744Z,100.00
2019-03-09T00:30:30.071Z,100.00
2019-03-09T00:32:58.603Z,100.00
2019-03-09T00:35:27.250Z,100.00
2019-03-09T00:37:55.874Z,100.00
2019-03-09T00:40:24.808Z,100.00
2019-03-09T00:42:53.342Z,100.00
2019-03-09T00:45:22.066Z,100.00
2019-03-09T00:47:50.641Z,100.00
2019-03-09T00:50:19.321Z,100.00
2019-03-09T00:52:48.214Z,100.00
2019-03-09T00:55:16.903Z,100.00
2019-03-09T00:57:45.480Z,100.00
2019-03-09T01:00:18.678Z,100.00
2019-03-09T01:02:47.260Z,100.00
2019-03-09T01:05:16.283Z,100.00
2019-03-09T01:07:45.058Z,100.00
2019-03-09T01:10:15.649Z,100.00
2019-03-09T01:12:44.272Z,100.00
2019-03-09T01:15:12.964Z,100.00
2019-03-09T01:17:41.519Z,100.00
2019-03-09T01:20:12.638Z,100.00
2019-03-09T01:22:41.245Z,100.00
2019-03-09T01:25:11.017Z,100.00
2019-03-09T01:27:39.611Z,100.00
2019-03-09T01:30:11.235Z,100.00
2019-03-09T01:32:40.291Z,100.00
2019-03-09T01:35:09.057Z,100.00
2019-03-09T01:37:38.062Z,100.00
2019-03-09T01:40:12.477Z,100.00
2019-03-09T01:42:41.475Z,100.00
2019-03-09T01:45:12.627Z,100.00
2019-03-09T01:47:41.310Z,100.00
2019-03-09T01:50:10.366Z,100.00
2019-03-09T01:52:39.018Z,100.00
2019-03-09T01:55:10.731Z,100.00
2019-03-09T01:57:39.334Z,100.00
2019-03-09T02:00:12.894Z,100.00
2019-03-09T02:02:41.742Z,100.00
2019-03-09T02:05:10.757Z,100.00
2019-03-09T02:07:39.627Z,100.00
2019-03-09T02:10:12.620Z,100.00
2019-03-09T02:12:41.371Z,100.00
2019-03-09T02:15:11.808Z,100.00
2019-03-09T02:17:40.571Z,100.00
2019-03-09T02:20:16.382Z,100.00
2019-03-09T02:22:45.498Z,100.00
2019-03-09T02:25:14.255Z,100.00
2019-03-09T02:27:42.913Z,100.00
2019-03-09T02:30:17.344Z,100.00
2019-03-09T02:32:46.130Z,100.00
2019-03-09T02:35:15.847Z,100.00
2019-03-09T02:37:44.877Z,100.00
2019-03-09T02:40:23.191Z,100.00
2019-03-09T02:42:52.046Z,100.00
2019-03-09T02:45:23.558Z,100.00
2019-03-09T02:47:52.225Z,100.00
2019-03-09T02:50:20.721Z,100.00
2019-03-09T02:52:49.348Z,100.00
2019-03-09T02:55:17.894Z,100.00
2019-03-09T02:57:46.523Z,100.00
2019-03-09T03:00:19.246Z,100.00
2019-03-09T03:02:49.567Z,100.00
2019-03-09T03:05:18.169Z,100.00
2019-03-09T03:07:46.909Z,100.00
2019-03-09T03:10:15.505Z,100.00
2019-03-09T03:12:44.172Z,100.00
2019-03-09T03:15:15.601Z,100.00
2019-03-09T03:17:44.170Z,100.00
2019-03-09T03:20:12.673Z,100.00
2019-03-09T03:22:41.351Z,100.00
2019-03-09T03:25:09.924Z,100.00
2019-03-09T03:27:38.607Z,100.00
2019-03-09T03:30:08.172Z,100.00
2019-03-09T03:32:37.311Z,100.00
2019-03-09T03:35:08.307Z,100.00
2019-03-09T03:37:36.835Z,100.00
2019-03-09T03:40:08.716Z,100.00
2019-03-09T03:42:37.532Z,100.00
2019-03-09T03:45:15.085Z,100.00
2019-03-09T03:47:43.651Z,100.00
2019-03-09T03:50:12.441Z,100.00
2019-03-09T03:52:41.221Z,100.00
2019-03-09T03:55:12.787Z,100.00
2019-03-09T03:57:41.390Z,100.00
2019-03-09T04:00:11.904Z,100.00
2019-03-09T04:02:40.429Z,100.00
2019-03-09T04:05:08.905Z,100.00
2019-03-09T04:07:37.441Z,100.00
2019-03-09T04:10:13.882Z,100.00
2019-03-09T04:12:43.019Z,100.00
2019-03-09T04:15:12.618Z,100.00
2019-03-09T04:17:41.193Z,100.00
2019-03-09T04:20:12.263Z,100.00
2019-03-09T04:22:40.802Z,100.00
2019-03-09T04:25:10.143Z,100.00
2019-03-09T04:27:38.640Z,100.00
2019-03-09T04:30:12.515Z,100.00
2019-03-09T04:32:41.642Z,100.00
2019-03-09T04:35:10.161Z,100.00
2019-03-09T04:37:38.699Z,100.00
2019-03-09T04:40:09.862Z,100.00
2019-03-09T04:42:38.697Z,100.00
2019-03-09T04:45:09.407Z,100.00
2019-03-09T04:47:37.882Z,100.00
2019-03-09T04:50:09.741Z,100.00
2019-03-09T04:52:38.278Z,100.00
2019-03-09T04:55:08.003Z,100.00
2019-03-09T04:57:36.504Z,100.00
2019-03-09T05:00:11.007Z,100.00
2019-03-09T05:02:39.492Z,100.00
2019-03-09T05:05:10.128Z,100.00
2019-03-09T05:07:44.043Z,100.00
2019-03-09T05:10:27.525Z,100.00
2019-03-09T05:12:59.208Z,100.00
2019-03-09T05:15:27.747Z,100.00
2019-03-09T05:17:56.548Z,100.00
2019-03-09T05:20:25.102Z,100.00
2019-03-09T05:22:53.668Z,100.00
2019-03-09T05:25:22.296Z,100.00
2019-03-09T05:27:50.755Z,100.00
2019-03-09T05:30:41.162Z,100.00
2019-03-09T05:33:09.805Z,100.00
2019-03-09T05:35:38.342Z,100.00
2019-03-09T05:38:06.857Z,100.00
2019-03-09T05:40:35.329Z,100.00
2019-03-09T05:43:04.216Z,100.00
2019-03-09T05:45:32.667Z,100.00
2019-03-09T05:48:01.572Z,100.00
2019-03-09T05:50:30.031Z,100.00
2019-03-09T05:53:07.055Z,100.00
2019-03-09T05:55:35.797Z,100.00
2019-03-09T05:58:04.279Z,100.00
2019-03-09T06:00:33.960Z,100.00
2019-03-09T06:03:02.589Z,100.00
2019-03-09T06:05:41.808Z,100.00
2019-03-09T06:08:10.309Z,100.00
2019-03-09T06:10:38.851Z,100.00
2019-03-09T06:13:07.363Z,100.00
2019-03-09T06:15:35.834Z,100.00
2019-03-09T06:18:06.315Z,100.00
2019-03-09T06:20:34.587Z,100.00
2019-03-09T06:23:03.279Z,100.00
2019-03-09T06:25:31.783Z,100.00
2019-03-09T06:28:00.325Z,100.00
2019-03-09T06:30:28.778Z,100.00
2019-03-09T06:33:24.912Z,100.00
2019-03-09T06:36:05.549Z,100.00
2019-03-09T06:38:48.896Z,100.00
2019-03-09T06:41:23.310Z,100.00
2019-03-09T06:43:51.798Z,100.00
2019-03-09T06:46:20.286Z,100.00
2019-03-09T06:48:48.754Z,100.00
2019-03-09T06:51:17.226Z,100.00
2019-03-09T06:53:45.764Z,100.00
2019-03-09T06:56:14.257Z,100.00
2019-03-09T06:58:42.800Z,100.00
2019-03-09T07:01:23.881Z,100.00
2019-03-09T07:03:52.483Z,100.00
2019-03-09T07:06:20.999Z,100.00
2019-03-09T07:08:49.509Z,100.00
2019-03-09T07:11:18.057Z,100.00
2019-03-09T07:13:52.774Z,100.00
2019-03-09T07:16:16.745Z,100.00
2019-03-09T07:18:45.291Z,100.00
2019-03-09T07:21:13.769Z,100.00
2019-03-09T07:23:42.315Z,100.00
2019-03-09T07:26:10.763Z,100.00
2019-03-09T07:28:39.341Z,100.00
2019-03-09T07:31:07.800Z,100.00
2019-03-09T07:33:36.343Z,100.00
2019-03-09T07:36:04.914Z,100.00
2019-03-09T07:38:33.424Z,100.00
2019-03-09T07:41:01.869Z,100.00
2019-03-09T07:43:30.384Z,100.00
2019-03-09T07:45:58.885Z,100.00
2019-03-09T07:48:27.440Z,100.00
2019-03-09T07:50:55.899Z,100.00
2019-03-09T07:53:24.439Z,100.00
2019-03-09T07:55:52.903Z,100.00
2019-03-09T07:58:21.481Z,100.00
2019-03-09T08:00:49.981Z,100.00
2019-03-09T08:03:18.641Z,100.00
2019-03-09T08:05:47.089Z,100.00
2019-03-09T08:08:15.603Z,100.00
2019-03-09T08:10:44.051Z,100.00
2019-03-09T08:13:12.551Z,100.00
2019-03-09T08:15:41.009Z,100.00
2019-03-09T08:18:09.524Z,100.00
2019-03-09T08:20:38.017Z,100.00
2019-03-09T08:23:06.559Z,100.00
2019-03-09T08:25:35.030Z,100.00
2019-03-09T08:28:03.630Z,100.00
2019-03-09T08:30:32.181Z,100.00
2019-03-09T08:33:00.717Z,100.00
2019-03-09T08:35:29.274Z,100.00
2019-03-09T08:37:57.886Z,100.00
2019-03-09T08:40:26.337Z,100.00
2019-03-09T08:42:54.960Z,100.00
2019-03-09T08:45:23.444Z,100.00
2019-03-09T08:47:52.998Z,100.00
2019-03-09T08:50:23.166Z,100.00
2019-03-09T08:52:51.793Z,100.00
2019-03-09T08:55:20.481Z,100.00
2019-03-09T08:57:48.936Z,100.00
2019-03-09T09:00:32.108Z,100.00
2019-03-09T09:03:00.705Z,100.00
2019-03-09T09:05:29.528Z,100.00
2019-03-09T09:07:58.077Z,100.00
2019-03-09T09:10:26.534Z,100.00
2019-03-09T09:12:56.681Z,100.00
2019-03-09T09:15:25.149Z,100.00
2019-03-09T09:17:53.728Z,100.00
2019-03-09T09:20:24.100Z,100.00
2019-03-09T09:22:52.572Z,100.00
2019-03-09T09:25:21.071Z,100.00
2019-03-09T09:27:51.852Z,100.00
2019-03-09T09:30:24.521Z,100.00
2019-03-09T09:32:53.104Z,100.00
2019-03-09T09:35:21.950Z,98.17
2019-03-09T09:37:50.837Z,98.79
2019-03-09T09:40:21.357Z,98.77
2019-03-09T09:42:50.014Z,96.84
2019-03-09T09:45:18.881Z,94.65
2019-03-09T09:47:47.522Z,93.36
2019-03-09T09:50:17.313Z,91.76
2019-03-09T09:52:45.877Z,90.23
2019-03-09T09:55:18.452Z,92.79
2019-03-09T09:57:47.304Z,86.36
2019-03-09T10:00:23.743Z,83.83
2019-03-09T10:02:52.356Z,81.85
2019-03-09T10:05:21.995Z,80.94
2019-03-09T10:07:50.871Z,75.93
2019-03-09T10:10:21.161Z,78.94
2019-03-09T10:12:49.725Z,73.60
2019-03-09T10:15:24.505Z,71.74
2019-03-09T10:17:53.122Z,70.00
2019-03-09T10:20:22.017Z,72.65
2019-03-09T10:22:50.873Z,72.13
2019-03-09T10:25:19.427Z,71.41
2019-03-09T10:27:48.388Z,70.93
2019-03-09T10:30:24.224Z,72.39
2019-03-09T10:32:54.787Z,72.51
2019-03-09T10:35:23.401Z,72.04
2019-03-09T10:37:52.412Z,73.26
2019-03-09T10:40:21.366Z,74.40
2019-03-09T10:42:50.253Z,73.31
2019-03-09T10:45:19.796Z,72.28
2019-03-09T10:47:48.809Z,73.80
2019-03-09T10:50:18.142Z,72.71
2019-03-09T10:52:46.748Z,72.97
2019-03-09T10:55:20.713Z,71.51
2019-03-09T10:57:49.608Z,72.16
2019-03-09T11:00:33.124Z,71.87
2019-03-09T11:03:01.741Z,71.21
2019-03-09T11:05:30.330Z,71.21
2019-03-09T11:07:58.947Z,70.83
2019-03-09T11:10:27.508Z,72.05
2019-03-09T11:12:56.085Z,72.25
2019-03-09T11:15:24.985Z,73.33
2019-03-09T11:17:53.622Z,73.28
2019-03-09T11:20:22.675Z,71.34
2019-03-09T11:22:51.236Z,67.81
2019-03-09T11:25:19.976Z,67.41
2019-03-09T11:27:48.994Z,69.00
2019-03-09T11:30:20.594Z,68.75
2019-03-09T11:32:49.143Z,68.91
2019-03-09T11:35:17.765Z,70.76
2019-03-09T11:37:47.279Z,67.11
2019-03-09T11:40:15.952Z,63.77
2019-03-09T11:42:44.670Z,53.18
2019-03-09T11:45:18.318Z,51.22
2019-03-09T11:47:46.972Z,56.25
2019-03-09T11:50:18.731Z,61.11
2019-03-09T11:52:47.613Z,64.26
2019-03-09T11:55:17.391Z,63.36
2019-03-09T11:57:46.033Z,61.25
2019-03-09T12:00:28.666Z,52.87
2019-03-09T12:02:57.312Z,49.58
2019-03-09T12:05:25.861Z,49.74
2019-03-09T12:07:54.434Z,52.60
2019-03-09T12:10:22.989Z,51.62
2019-03-09T12:12:51.680Z,51.29
2019-03-09T12:15:20.744Z,47.89
2019-03-09T12:17:50.732Z,51.47
2019-03-09T12:20:23.491Z,50.07
2019-03-09T12:23:01.095Z,53.44
2019-03-09T12:25:25.151Z,55.29
2019-03-09T12:27:54.937Z,57.31
2019-03-09T12:30:23.601Z,58.90
2019-03-09T12:32:52.180Z,58.63
2019-03-09T12:35:20.751Z,59.72
2019-03-09T12:37:49.311Z,57.54
2019-03-09T12:40:19.101Z,58.38
2019-03-09T12:42:47.904Z,56.60
2019-03-09T12:45:17.312Z,51.00
2019-03-09T12:47:46.903Z,55.59
2019-03-09T12:50:23.424Z,55.31
2019-03-09T12:52:52.491Z,48.75
2019-03-09T12:55:21.050Z,44.95
2019-03-09T12:57:49.751Z,45.34
2019-03-09T13:00:22.490Z,48.48
2019-03-09T13:02:51.431Z,49.85
2019-03-09T13:05:20.012Z,49.63
2019-03-09T13:07:48.587Z,50.78
2019-03-09T13:10:17.678Z,52.91
2019-03-09T13:12:46.795Z,53.85
2019-03-09T13:15:16.694Z,55.17
2019-03-09T13:17:45.685Z,56.64
2019-03-09T13:20:15.682Z,56.93
2019-03-09T13:22:44.360Z,57.22
2019-03-09T13:25:13.502Z,57.68
2019-03-09T13:27:42.221Z,50.92
2019-03-09T13:30:20.035Z,54.12
2019-03-09T13:32:49.412Z,56.76
2019-03-09T13:35:18.064Z,57.49
2019-03-09T13:37:46.637Z,58.84
2019-03-09T13:40:16.676Z,60.73
2019-03-09T13:42:45.303Z,61.68
2019-03-09T13:45:17.946Z,62.94
2019-03-09T13:47:46.634Z,63.13
2019-03-09T13:50:15.758Z,63.87
2019-03-09T13:52:44.401Z,63.88
2019-03-09T13:55:14.414Z,62.86
2019-03-09T13:57:43.371Z,61.15
2019-03-09T14:00:19.068Z,58.77
2019-03-09T14:02:47.847Z,61.81
2019-03-09T14:05:16.619Z,63.59
2019-03-09T14:07:45.318Z,61.92
2019-03-09T14:10:17.499Z,63.03
2019-03-09T14:12:47.815Z,65.25
2019-03-09T14:15:17.417Z,67.65
2019-03-09T14:17:46.483Z,66.64
2019-03-09T14:20:16.628Z,67.22
2019-03-09T14:22:45.773Z,64.24
2019-03-09T14:25:15.993Z,65.99
2019-03-09T14:27:44.526Z,66.10
2019-03-09T14:30:19.862Z,66.37
2019-03-09T14:32:50.611Z,65.70
2019-03-09T14:35:19.183Z,64.11
2019-03-09T14:37:48.200Z,64.68
2019-03-09T14:40:17.176Z,63.09
2019-03-09T14:42:45.816Z,64.63
2019-03-09T14:45:17.934Z,62.18
2019-03-09T14:47:46.494Z,61.25
2019-03-09T14:50:15.476Z,62.25
2019-03-09T14:52:44.336Z,59.50
2019-03-09T14:55:14.120Z,61.29
2019-03-09T14:57:42.851Z,58.42
2019-03-09T15:00:26.061Z,59.07
2019-03-09T15:02:55.252Z,58.37
2019-03-09T15:05:24.039Z,58.60
2019-03-09T15:07:53.206Z,58.96
2019-03-09T15:10:22.996Z,61.79
2019-03-09T15:12:52.094Z,65.86
2019-03-09T15:15:21.351Z,69.46
2019-03-09T15:17:50.015Z,71.89
2019-03-09T15:20:18.700Z,76.29
2019-03-09T15:22:47.393Z,78.55
2019-03-09T15:25:20.449Z,78.07
2019-03-09T15:27:49.284Z,90.35
2019-03-09T15:30:19.278Z,91.89
2019-03-09T15:32:47.928Z,100.00
2019-03-09T15:35:17.293Z,100.00
2019-03-09T15:37:46.023Z,100.00
2019-03-09T15:40:17.617Z,100.00
2019-03-09T15:42:46.437Z,100.00
2019-03-09T15:45:16.700Z,100.00
2019-03-09T15:47:45.938Z,100.00
2019-03-09T15:50:19.419Z,100.00
2019-03-09T15:52:48.205Z,100.00
2019-03-09T15:55:16.937Z,100.00
2019-03-09T15:57:46.801Z,100.00
2019-03-09T16:00:23.769Z,100.00
2019-03-09T16:02:52.780Z,100.00
2019-03-09T16:05:21.362Z,100.00
2019-03-09T16:07:50.019Z,100.00
2019-03-09T16:10:22.758Z,100.00
2019-03-09T16:12:51.432Z,100.00
2019-03-09T16:15:20.161Z,100.00
2019-03-09T16:17:48.920Z,100.00
2019-03-09T16:20:26.287Z,100.00
2019-03-09T16:22:55.929Z,100.00
2019-03-09T16:25:24.445Z,100.00
2019-03-09T16:27:53.735Z,100.00
2019-03-09T16:30:23.666Z,100.00
2019-03-09T16:32:52.380Z,100.00
2019-03-09T16:35:21.033Z,100.00
2019-03-09T16:37:50.971Z,100.00
2019-03-09T16:40:21.480Z,100.00
2019-03-09T16:42:52.592Z,100.00
2019-03-09T16:45:21.253Z,100.00
2019-03-09T16:47:49.858Z,100.00
2019-03-09T16:50:19.504Z,100.00
2019-03-09T16:52:48.189Z,100.00
2019-03-09T16:55:16.933Z,100.00
2019-03-09T16:57:45.933Z,100.00
2019-03-09T17:00:21.036Z,100.00
2019-03-09T17:02:49.696Z,100.00
2019-03-09T17:05:18.467Z,100.00
2019-03-09T17:07:47.210Z,100.00
2019-03-09T17:10:19.092Z,100.00
2019-03-09T17:12:47.685Z,100.00
2019-03-09T17:15:18.062Z,100.00
2019-03-09T17:17:48.615Z,100.00
2019-03-09T17:20:17.988Z,100.00
2019-03-09T17:22:46.786Z,100.00
2019-03-09T17:25:16.036Z,100.00
2019-03-09T17:27:44.612Z,100.00
2019-03-09T17:30:17.770Z,100.00
2019-03-09T17:32:46.445Z,100.00
2019-03-09T17:35:15.399Z,100.00
2019-03-09T17:37:43.992Z,100.00
2019-03-09T17:40:17.079Z,100.00
2019-03-09T17:42:46.047Z,100.00
2019-03-09T17:45:20.620Z,100.00
2019-03-09T17:47:49.350Z,100.00
2019-03-09T17:50:17.930Z,100.00
2019-03-09T17:52:46.554Z,100.00
2019-03-09T17:55:15.199Z,100.00
2019-03-09T17:57:43.872Z,100.00
2019-03-09T18:00:19.907Z,100.00
2019-03-09T18:02:48.543Z,100.00
2019-03-09T18:05:19.600Z,100.00
2019-03-09T18:07:48.049Z,100.00
2019-03-09T18:10:28.844Z,100.00
2019-03-09T18:12:57.567Z,100.00
2019-03-09T18:15:26.204Z,100.00
2019-03-09T18:17:55.317Z,100.00
2019-03-09T18:20:23.849Z,100.00
2019-03-09T18:22:52.505Z,100.00
2019-03-09T18:25:21.592Z,100.00
2019-03-09T18:27:50.264Z,100.00
2019-03-09T18:30:18.835Z,100.00
2019-03-09T18:32:48.255Z,100.00
2019-03-09T18:35:16.829Z,100.00
2019-03-09T18:37:45.486Z,100.00
2019-03-09T18:40:16.026Z,100.00
2019-03-09T18:42:45.119Z,100.00
2019-03-09T18:45:24.683Z,100.00
2019-03-09T18:47:53.736Z,100.00
2019-03-09T18:50:22.350Z,100.00
2019-03-09T18:52:50.954Z,100.00
2019-03-09T18:55:19.520Z,100.00
2019-03-09T18:57:49.073Z,100.00
2019-03-09T19:00:21.328Z,100.00
2019-03-09T19:02:50.303Z,100.00
2019-03-09T19:05:18.951Z,100.00
2019-03-09T19:07:47.547Z,100.00
2019-03-09T19:10:18.287Z,100.00
2019-03-09T19:12:47.064Z,100.00
2019-03-09T19:15:17.657Z,100.00
2019-03-09T19:17:46.748Z,100.00
2019-03-09T19:20:17.915Z,100.00
2019-03-09T19:22:57.178Z,100.00
2019-03-09T19:25:26.238Z,100.00
2019-03-09T19:27:54.851Z,100.00
2019-03-09T19:30:23.897Z,100.00
2019-03-09T19:32:59.853Z,100.00
2019-03-09T19:35:22.852Z,100.00
2019-03-09T19:37:51.515Z,100.00
2019-03-09T19:40:21.618Z,100.00
2019-03-09T19:42:52.446Z,100.00
2019-03-09T19:45:23.789Z,100.00
2019-03-09T19:47:53.781Z,100.00
2019-03-09T19:50:24.111Z,100.00
2019-03-09T19:52:52.678Z,100.00
2019-03-09T19:55:21.332Z,100.00
2019-03-09T19:57:49.946Z,100.00
2019-03-09T20:00:19.875Z,100.00
2019-03-09T20:02:48.418Z,100.00
2019-03-09T20:05:17.314Z,100.00
2019-03-09T20:07:45.929Z,100.00
2019-03-09T20:10:19.256Z,100.00
2019-03-09T20:12:47.898Z,100.00
2019-03-09T20:15:19.903Z,100.00
2019-03-09T20:17:48.510Z,100.00
2019-03-09T20:20:18.107Z,100.00
2019-03-09T20:22:46.635Z,100.00
2019-03-09T20:25:15.373Z,100.00
2019-03-09T20:27:44.405Z,100.00
2019-03-09T20:30:20.850Z,100.00
2019-03-09T20:32:49.518Z,100.00
2019-03-09T20:35:18.137Z,100.00
2019-03-09T20:37:46.744Z,100.00
2019-03-09T20:40:17.786Z,100.00
2019-03-09T20:42:46.507Z,100.00
2019-03-09T20:45:21.560Z,100.00
2019-03-09T20:47:50.178Z,100.00
2019-03-09T20:50:23.526Z,100.00
2019-03-09T20:52:53.285Z,100.00
2019-03-09T20:55:21.858Z,100.00
2019-03-09T20:57:50.561Z,100.00
2019-03-09T21:00:23.270Z,100.00
2019-03-09T21:02:54.338Z,100.00
2019-03-09T21:05:23.773Z,100.00
2019-03-09T21:07:52.939Z,100.00
2019-03-09T21:10:21.923Z,100.00
2019-03-09T21:13:07.900Z,100.00
2019-03-09T21:15:36.427Z,100.00
2019-03-09T21:18:05.154Z,100.00
2019-03-09T21:20:33.907Z,100.00
2019-03-09T21:23:02.517Z,100.00
2019-03-09T21:25:32.694Z,100.00
2019-03-09T21:28:01.554Z,100.00
2019-03-09T21:30:30.190Z,100.00
2019-03-09T21:32:59.878Z,100.00
2019-03-09T21:35:28.676Z,100.00
2019-03-09T21:37:57.445Z,100.00
2019-03-09T21:40:26.095Z,100.00
2019-03-09T21:42:54.879Z,100.00
2019-03-09T21:45:23.599Z,100.00
2019-03-09T21:47:52.119Z,100.00
2019-03-09T21:50:20.858Z,100.00
2019-03-09T21:52:49.820Z,100.00
2019-03-09T21:55:18.369Z,100.00
2019-03-09T21:57:49.220Z,100.00
2019-03-09T22:00:19.418Z,100.00
2019-03-09T22:02:50.199Z,100.00
2019-03-09T22:05:18.344Z,100.00
2019-03-09T22:07:47.248Z,100.00
2019-03-09T22:10:15.881Z,100.00
2019-03-09T22:12:45.097Z,100.00
2019-03-09T22:15:20.581Z,100.00
2019-03-09T22:17:50.274Z,100.00
2019-03-09T22:20:20.614Z,100.00
2019-03-09T22:22:49.062Z,100.00
2019-03-09T22:25:18.780Z,100.00
2019-03-09T22:27:47.398Z,100.00
2019-03-09T22:30:21.123Z,100.00
2019-03-09T22:32:49.694Z,100.00
2019-03-09T22:35:18.565Z,100.00
2019-03-09T22:37:47.196Z,100.00
2019-03-09T22:40:17.098Z,100.00
2019-03-09T22:42:45.901Z,100.00
2019-03-09T22:45:15.786Z,100.00
2019-03-09T22:47:44.356Z,100.00
2019-03-09T22:50:22.128Z,100.00
2019-03-09T22:52:51.365Z,100.00
2019-03-09T22:55:20.917Z,100.00
2019-03-09T22:57:49.511Z,100.00
2019-03-09T23:00:22.647Z,100.00
2019-03-09T23:02:52.372Z,100.00
2019-03-09T23:05:20.948Z,100.00
2019-03-09T23:07:49.783Z,100.00
2019-03-09T23:10:20.109Z,100.00
2019-03-09T23:12:48.699Z,100.00
2019-03-09T23:15:18.531Z,100.00
2019-03-09T23:17:47.081Z,100.00
2019-03-09T23:20:16.736Z,100.00
2019-03-09T23:22:45.654Z,100.00
2019-03-09T23:25:15.701Z,100.00
2019-03-09T23:27:44.355Z,100.00
2019-03-09T23:30:20.156Z,100.00
2019-03-09T23:32:48.771Z,100.00
2019-03-09T23:35:17.802Z,100.00
2019-03-09T23:37:47.268Z,100.00
2019-03-09T23:40:20.140Z,100.00
2019-03-09T23:42:48.753Z,100.00
2019-03-09T23:45:22.850Z,100.00
2019-03-09T23:47:51.850Z,100.00
2019-03-09T23:50:20.411Z,100.00
2019-03-09T23:52:49.429Z,100.00
2019-03-09T23:55:22.451Z,100.00
2019-03-09T23:57:49.405Z,100.00
